Time;durP1;ratioP1;P1;durP2;ratioP2;P2;SDS_P1;SDS_P2;PMS_P1;PMS_P2;Temp;Humidity;BMP_temperature;BMP_pressure;BME280_temperature;BME280_humidity;BME280_pressure;Samples;Min_cycle;Max_cycle;Signal;HPM_P1;HPM_P2
2022/05/25 00:02:48;;;;;;;3.30;1.65;;;;;;;12.73;98.50;100293.75;10371302;28;20042;-70
2022/05/25 00:07:49;;;;;;;3.78;1.70;;;;;;;12.93;98.43;100335.88;10371459;28;20068;-71
2022/05/25 00:12:50;;;;;;;4.28;1.52;;;;;;;12.95;97.60;100360.50;10371527;28;20037;-71
2022/05/25 00:17:51;;;;;;;1.85;1.33;;;;;;;11.43;97.44;100128.06;10375964;28;20061;-70
2022/05/25 00:22:55;;;;;;;3.75;1.50;;;;;;;12.64;97.32;100361.47;10379949;28;20057;-70
2022/05/25 00:28:00;;;;;;;3.00;1.33;;;;;;;12.66;98.46;100350.66;10379314;28;20068;-71
2022/05/25 00:33:02;;;;;;;3.42;1.40;;;;;;;12.74;97.83;100364.72;10378732;28;20303;-70
2022/05/25 00:38:05;;;;;;;5.55;1.63;;;;;;;12.73;97.75;100371.06;10377445;28;20054;-71
2022/05/25 00:43:06;;;;;;;4.22;1.60;;;;;;;12.66;97.60;100359.47;10377497;28;20616;-71
2022/05/25 00:48:15;;;;;;;2.67;1.35;;;;;;;12.05;98.11;100249.47;10379032;28;20140;-72
2022/05/25 00:53:17;;;;;;;4.43;1.50;;;;;;;12.78;97.75;100366.00;10378773;28;20511;-70
2022/05/25 00:58:18;;;;;;;15.70;2.28;;;;;;;12.79;97.92;100365.00;10377675;28;20049;-71
2022/05/25 01:03:19;;;;;;;7.65;2.22;;;;;;;12.83;98.19;100378.78;10378412;28;20034;-71
2022/05/25 01:08:53;;;;;;;6.03;1.90;;;;;;;12.97;100.00;100377.97;10377639;28;20133;-71
2022/05/25 01:14:09;;;;;;;3.20;1.73;;;;;;;12.93;99.61;100376.69;10376626;28;20494;-71
2022/05/25 01:19:19;;;;;;;6.80;1.70;;;;;;;12.23;98.64;100281.91;10392867;28;20053;-71
2022/05/25 01:24:35;;;;;;;3.63;2.05;;;;;;;12.05;100.00;100238.81;10377637;28;20050;-71
2022/05/25 01:29:47;;;;;;;4.38;2.00;;;;;;;12.92;99.93;100395.53;10408447;28;20183;-71
2022/05/25 01:34:54;;;;;;;3.00;1.80;;;;;;;12.89;100.00;100394.06;10376798;28;20054;-71
2022/05/25 01:40:06;;;;;;;5.78;1.98;;;;;;;12.83;100.00;100375.28;10375238;28;20056;-71
2022/05/25 01:45:09;;;;;;;3.08;1.67;;;;;;;12.97;99.90;100399.31;10376768;28;20046;-71
2022/05/25 01:50:20;;;;;;;5.07;1.52;;;;;;;13.03;100.00;100438.56;10376099;28;20033;-71
2022/05/25 01:55:25;;;;;;;4.65;1.95;;;;;;;12.94;99.85;100425.50;10375205;28;20041;-71
2022/05/25 02:00:33;;;;;;;6.50;1.83;;;;;;;12.82;99.48;100421.63;10374312;28;20112;-71
2022/05/25 02:05:36;;;;;;;4.35;2.15;;;;;;;12.73;99.86;100423.53;10375947;28;20559;-71
2022/05/25 02:10:55;;;;;;;7.35;2.58;;;;;;;12.84;99.50;100435.63;10377372;28;20217;-71
2022/05/25 02:16:27;;;;;;;10.30;2.70;;;;;;;12.04;100.00;100303.72;10374600;28;20048;-71
2022/05/25 02:21:34;;;;;;;6.05;3.28;;;;;;;12.67;100.00;100402.94;10375032;28;20057;-71
2022/05/25 02:26:55;;;;;;;10.75;2.95;;;;;;;12.12;100.00;100318.81;10374118;28;20124;-71
2022/05/25 02:32:37;;;;;;;7.43;3.55;;;;;;;13.13;100.00;100458.81;10374950;28;20058;-71
2022/05/25 02:37:38;;;;;;;8.88;3.08;;;;;;;13.05;98.61;100466.94;10372752;28;20049;-71
2022/05/25 02:42:41;;;;;;;6.90;3.08;;;;;;;13.05;99.22;100459.75;10373514;28;20038;-71
2022/05/25 02:47:42;;;;;;;8.55;3.17;;;;;;;13.16;98.63;100483.31;10373001;28;20493;-72
2022/05/25 02:52:43;;;;;;;14.55;4.47;;;;;;;13.28;98.42;100480.22;10392552;28;20508;-70
2022/05/25 02:57:44;;;;;;;7.75;3.63;;;;;;;12.72;98.24;100388.06;10451955;28;20044;-70
2022/05/25 03:02:45;;;;;;;6.50;3.72;;;;;;;13.00;97.79;100419.44;10450922;28;20049;-73
2022/05/25 03:07:46;;;;;;;7.78;4.40;;;;;;;13.40;97.14;100497.44;10455016;28;20072;-72
2022/05/25 03:12:47;;;;;;;9.10;4.97;;;;;;;13.24;97.30;100477.88;10454302;28;20052;-71
2022/05/25 03:17:48;;;;;;;10.15;5.35;;;;;;;12.60;97.70;100364.69;10392465;28;20057;-71
2022/05/25 03:22:49;;;;;;;9.45;4.97;;;;;;;13.46;97.57;100502.03;10360225;28;20129;-74
2022/05/25 03:27:49;;;;;;;6.00;5.15;;;;;;;12.69;97.46;100372.44;10338936;28;20545;-71
2022/05/25 03:32:51;;;;;;;8.95;4.95;;;;;;;12.64;97.41;100364.13;10340603;28;20486;-70
2022/05/25 03:37:52;;;;;;;8.07;4.65;;;;;;;13.54;97.75;100509.13;10334816;28;20453;-72
2022/05/25 03:42:52;;;;;;;7.10;4.60;;;;;;;13.67;97.35;100511.97;10338027;28;20103;-70
2022/05/25 03:47:53;;;;;;;6.82;4.05;;;;;;;13.60;96.25;100489.72;10335738;28;20035;-70
2022/05/25 03:52:54;;;;;;;7.30;4.80;;;;;;;13.79;96.45;100518.56;10338327;28;20042;-74
2022/05/25 03:57:55;;;;;;;4.95;3.85;;;;;;;13.91;96.85;100524.25;10339258;28;20050;-74
2022/05/25 04:02:57;;;;;;;6.03;3.80;;;;;;;13.73;96.34;100497.06;10339099;28;20525;-70
2022/05/25 04:08:00;;;;;;;8.82;4.22;;;;;;;13.52;96.56;100468.44;10339491;28;20405;-71
2022/05/25 04:13:02;;;;;;;8.80;3.88;;;;;;;13.86;96.53;100497.25;10339201;28;20034;-70
2022/05/25 04:18:04;;;;;;;7.50;4.57;;;;;;;14.24;96.15;100550.53;10337582;28;20046;-69
2022/05/25 04:23:09;;;;;;;7.45;4.18;;;;;;;13.53;95.90;100430.09;10337678;28;20038;-69
2022/05/25 04:28:10;;;;;;;4.43;3.95;;;;;;;14.37;95.42;100556.06;10338411;28;20042;-69
2022/05/25 04:33:11;;;;;;;4.75;3.45;;;;;;;14.48;95.09;100560.06;10338477;28;20046;-70
2022/05/25 04:38:15;;;;;;;6.07;3.90;;;;;;;14.69;95.93;100559.31;10338123;28;20062;-70
2022/05/25 04:43:21;;;;;;;5.65;3.78;;;;;;;14.20;94.36;100458.41;10338011;28;20526;-71
2022/05/25 04:48:23;;;;;;;5.88;3.83;;;;;;;14.90;93.70;100553.97;10337780;28;20038;-70
2022/05/25 04:53:25;;;;;;;5.43;3.72;;;;;;;14.80;93.17;100532.06;10336534;28;20125;-71
2022/05/25 04:58:32;;;;;;;6.53;4.63;;;;;;;14.86;92.72;100520.59;10373338;28;20076;-72
2022/05/25 05:03:33;;;;;;;18.50;5.70;;;;;;;15.36;92.14;100580.31;10377295;28;20081;-71
2022/05/25 05:08:35;;;;;;;5.82;4.63;;;;;;;15.21;91.25;100571.53;10378246;28;20065;-72
2022/05/25 05:13:37;;;;;;;7.15;5.28;;;;;;;15.31;90.27;100580.06;10377399;28;20074;-71
2022/05/25 05:18:38;;;;;;;14.55;6.45;;;;;;;15.46;89.23;100588.84;10376756;28;20074;-72
2022/05/25 05:23:39;;;;;;;6.75;6.00;;;;;;;15.40;89.04;100548.63;10377338;28;20072;-72
2022/05/25 05:28:42;;;;;;;6.47;5.45;;;;;;;15.94;88.81;100586.34;10376627;28;20117;-71
2022/05/25 05:33:42;;;;;;;4.20;3.20;;;;;;;16.31;85.94;100594.97;10376651;28;20448;-72
2022/05/25 05:38:52;;;;;;;5.82;3.90;;;;;;;16.25;84.27;100485.88;10377212;28;20113;-71
2022/05/25 05:43:53;;;;;;;6.35;3.50;;;;;;;15.78;82.65;100358.97;10377022;28;20057;-71
2022/05/25 05:48:54;;;;;;;4.05;2.90;;;;;;;17.25;81.30;100579.94;10375807;28;20125;-73
2022/05/25 05:53:55;;;;;;;5.63;3.22;;;;;;;17.37;79.76;100582.84;10376804;28;20096;-72
2022/05/25 05:58:56;;;;;;;4.00;3.17;;;;;;;17.62;79.09;100593.78;10375109;28;20513;-72
2022/05/25 06:03:56;;;;;;;8.13;3.30;;;;;;;17.07;78.57;100475.88;10375582;28;20160;-71
2022/05/25 06:08:57;;;;;;;5.15;2.83;;;;;;;17.59;77.58;100578.94;10375614;28;20561;-71
2022/05/25 06:13:58;;;;;;;5.38;3.13;;;;;;;17.69;77.70;100592.75;10364176;28;20192;-72
2022/05/25 06:24:18;;;;;;;5.28;3.13;;;;;;;18.60;73.31;100585.66;10334254;28;20043;-72
2022/05/25 06:29:20;;;;;;;3.42;2.85;;;;;;;18.65;72.56;100602.00;10334228;28;20065;-72
2022/05/25 06:34:21;;;;;;;5.50;3.15;;;;;;;18.81;71.61;100595.31;10333952;28;20093;-73
2022/05/25 06:39:22;;;;;;;5.05;3.13;;;;;;;18.18;70.53;100442.72;10350810;28;20038;-72
2022/05/25 06:44:23;;;;;;;4.55;3.00;;;;;;;19.41;69.21;100592.19;10340841;28;20046;-72
2022/05/25 06:49:24;;;;;;;6.85;2.80;;;;;;;19.98;67.70;100591.06;10332700;28;20046;-73
2022/05/25 06:54:25;;;;;;;4.78;2.75;;;;;;;20.04;66.38;100587.47;10333069;28;20048;-73
2022/05/25 06:59:25;;;;;;;5.72;2.53;;;;;;;20.12;65.14;100596.31;10332548;28;20141;-73
2022/05/25 07:04:26;;;;;;;4.05;2.63;;;;;;;19.48;64.42;100561.47;10333485;28;20038;-74
2022/05/25 07:09:27;;;;;;;6.03;2.95;;;;;;;19.44;65.60;100600.66;10332994;28;20077;-72
2022/05/25 07:14:28;;;;;;;4.15;2.50;;;;;;;18.44;65.13;100487.47;10332413;28;20104;-72
2022/05/25 07:19:29;;;;;;;7.80;2.65;;;;;;;19.24;63.27;100559.63;10331898;28;20522;-72
2022/05/25 07:24:30;;;;;;;4.43;2.80;;;;;;;20.11;61.97;100598.19;10330455;28;20057;-72
2022/05/25 07:29:31;;;;;;;4.60;3.00;;;;;;;20.46;60.96;100597.56;10331542;28;20042;-72
2022/05/25 07:34:38;;;;;;;6.63;3.38;;;;;;;20.81;60.97;100596.94;10332676;28;20118;-72
2022/05/25 07:39:47;;;;;;;5.25;3.05;;;;;;;20.29;57.13;100563.09;10331892;28;20050;-73
2022/05/25 07:44:58;;;;;;;5.32;3.13;;;;;;;20.68;55.77;100598.75;10331207;28;20107;-73
2022/05/25 07:49:59;;;;;;;5.03;2.85;;;;;;;20.39;56.59;100530.19;10331259;28;20128;-73
2022/05/25 07:55:02;;;;;;;15.00;3.45;;;;;;;21.01;57.38;100572.34;10331647;28;20137;-72
2022/05/25 08:00:04;;;;;;;8.23;3.17;;;;;;;20.83;55.00;100574.03;10330901;28;20046;-73
2022/05/25 08:10:25;;;;;;;4.95;2.22;;;;;;;20.98;53.27;100598.75;10330673;28;20082;-73
2022/05/25 08:15:28;;;;;;;4.60;2.92;;;;;;;21.15;53.36;100576.47;10330573;28;20145;-73
2022/05/25 08:20:30;;;;;;;7.20;2.97;;;;;;;21.60;51.49;100568.69;10331204;28;20045;-72
2022/05/25 08:25:31;;;;;;;15.75;3.10;;;;;;;21.98;50.53;100596.28;10330767;28;20073;-73
2022/05/25 08:30:35;;;;;;;3.15;2.17;;;;;;;20.56;50.20;100537.69;10330344;28;20069;-79
2022/05/25 08:35:37;;;;;;;5.82;1.50;;;;;;;19.56;52.42;100633.09;10331338;28;20117;-77
2022/05/25 08:40:38;;;;;;;15.30;2.83;;;;;;;18.13;59.75;100638.81;10337947;28;20045;-71
2022/05/25 08:45:47;;;;;;;10.13;2.20;;;;;;;16.71;68.94;100629.97;10337916;28;20084;-68
2022/05/25 08:50:57;;;;;;;8.27;1.70;;;;;;;16.29;69.96;100636.41;10337635;28;20081;-69
2022/05/25 08:56:26;;;;;;;11.73;4.00;;;;;;;16.27;76.62;100639.25;10335876;28;20046;-68
2022/05/25 09:01:49;;;;;;;7.32;4.45;;;;;;;16.74;74.40;100644.84;10337414;28;20039;-68
2022/05/25 09:07:16;;;;;;;4.30;2.25;;;;;;;17.83;71.26;100628.53;10336956;28;20034;-69
2022/05/25 09:12:48;;;;;;;5.80;2.20;;;;;;;18.93;68.88;100632.13;10333329;28;20050;-70
2022/05/25 09:18:02;;;;;;;5.07;1.90;;;;;;;19.28;67.91;100623.59;10331889;28;20049;-69
2022/05/25 09:23:03;;;;;;;3.40;1.65;;;;;;;19.50;63.91;100572.81;10336162;28;20069;-68
2022/05/25 09:28:17;;;;;;;7.38;2.55;;;;;;;20.14;61.46;100631.97;10336004;28;20557;-69
2022/05/25 09:33:40;;;;;;;4.07;2.40;;;;;;;20.49;62.01;100624.09;10336036;28;20038;-69
2022/05/25 09:38:43;;;;;;;5.85;2.65;;;;;;;20.72;60.04;100621.53;10336233;28;20042;-69
2022/05/25 09:43:44;;;;;;;3.00;2.03;;;;;;;20.14;56.47;100507.91;10336056;28;20042;-69
2022/05/25 09:48:51;;;;;;;5.53;2.50;;;;;;;20.92;54.14;100623.16;10334632;28;20042;-70
2022/05/25 09:54:00;;;;;;;5.35;3.00;;;;;;;21.27;53.16;100634.06;10336001;28;20057;-71
2022/05/25 09:59:07;;;;;;;4.15;2.10;;;;;;;20.78;48.65;100498.31;10335421;28;20042;-70
2022/05/25 10:04:10;;;;;;;21.98;13.98;;;;;;;21.11;50.55;100605.81;10334460;28;20049;-70
2022/05/25 10:09:18;;;;;;;6.45;3.33;;;;;;;20.18;51.54;100479.44;10334786;28;20104;-70
2022/05/25 10:14:19;;;;;;;6.85;3.00;;;;;;;20.29;51.83;100468.69;10334801;28;20425;-70
2022/05/25 10:19:21;;;;;;;4.05;2.10;;;;;;;21.24;49.83;100590.44;10335109;28;20125;-69
2022/05/25 10:24:25;;;;;;;6.95;1.92;;;;;;;20.11;49.92;100474.13;10334874;28;20085;-73
2022/05/25 10:40:06;;;;;;;3.75;2.33;;;;;;;20.17;53.48;100615.34;10333666;28;20050;-73
2022/05/25 10:45:09;;;;;;;4.40;2.35;;;;;;;19.68;49.45;100386.13;10333451;28;20045;-73
2022/05/25 10:50:43;;;;;;;10.60;2.15;;;;;;;21.71;45.52;100599.47;10332840;28;20042;-72
2022/05/25 10:56:36;;;;;;;5.18;2.38;;;;;;;21.88;45.82;100595.00;10330390;28;20472;-74
2022/05/25 11:02:22;;;;;;;3.78;2.10;;;;;;;21.92;43.95;100591.81;10321478;28;20057;-72
2022/05/25 11:07:40;;;;;;;3.75;2.15;;;;;;;21.67;44.37;100487.44;10332788;28;20038;-72
2022/05/25 11:13:14;;;;;;;3.47;1.77;;;;;;;22.55;41.76;100591.81;10332595;28;20046;-73
2022/05/25 11:18:36;;;;;;;5.30;2.10;;;;;;;22.59;39.82;100581.34;10324394;28;20078;-73
2022/05/25 11:23:55;;;;;;;3.03;1.73;;;;;;;22.78;40.67;100579.22;10332406;28;20160;-74
2022/05/25 11:29:42;;;;;;;4.15;1.92;;;;;;;22.60;40.47;100587.56;10332862;28;20117;-74
2022/05/25 11:35:11;;;;;;;6.68;2.05;;;;;;;21.93;39.63;100579.91;10313615;28;20097;-74
2022/05/25 11:41:02;;;;;;;4.50;2.00;;;;;;;22.28;40.18;100583.41;10332269;28;20049;-75
2022/05/25 11:46:35;;;;;;;4.82;1.83;;;;;;;22.57;37.91;100561.78;10286042;28;20054;-72
2022/05/25 11:52:08;;;;;;;3.30;1.63;;;;;;;22.91;36.80;100575.41;10331860;28;20043;-73
2022/05/25 11:57:28;;;;;;;3.22;1.85;;;;;;;22.95;36.59;100577.41;10323926;28;20383;-74
2022/05/25 12:02:59;;;;;;;5.13;1.73;;;;;;;23.25;36.02;100579.00;10331862;28;20061;-72
2022/05/25 12:08:12;;;;;;;4.32;2.00;;;;;;;23.36;37.33;100575.41;10331501;28;20045;-76
2022/05/25 12:13:26;;;;;;;3.58;1.92;;;;;;;21.58;37.73;100380.75;10350586;28;20043;-75
2022/05/25 12:18:43;;;;;;;6.45;2.70;;;;;;;22.36;38.03;100516.44;10339901;28;20069;-73
2022/05/25 12:23:50;;;;;;;4.63;2.30;;;;;;;22.73;36.87;100561.00;10382036;28;20124;-74
2022/05/25 12:28:53;;;;;;;4.82;2.17;;;;;;;22.70;37.58;100557.94;10377762;28;20037;-77
2022/05/25 12:33:54;;;;;;;5.88;2.10;;;;;;;;;;10365388;28;20101;-75
2022/05/25 12:38:55;;;;;;;4.25;2.28;;;;;;;22.79;38.97;100572.75;10396007;28;20504;-73
2022/05/25 12:44:00;;;;;;;4.70;2.28;;;;;;;23.14;36.50;100566.34;10419720;28;20060;-73
2022/05/25 12:49:04;;;;;;;4.70;2.10;;;;;;;23.23;37.60;100571.09;10347788;28;20041;-72
2022/05/25 12:54:31;;;;;;;5.03;2.25;;;;;;;22.83;36.86;100556.84;10369353;28;20042;-74
2022/05/25 12:59:36;;;;;;;3.38;2.17;;;;;;;22.66;37.63;100560.34;10381315;28;20049;-73
2022/05/25 13:04:43;;;;;;;5.60;2.22;;;;;;;22.05;37.20;100375.16;10395938;28;20117;-74
2022/05/25 13:09:45;;;;;;;3.35;2.40;;;;;;;23.59;34.43;100560.81;10395478;28;20056;-73
2022/05/25 13:14:45;;;;;;;5.10;2.55;;;;;;;23.73;34.85;100565.94;10380378;28;20048;-74
2022/05/25 13:19:46;;;;;;;7.10;2.00;;;;;;;23.21;34.85;100545.31;10372238;28;20042;-73
2022/05/25 13:25:29;;;;;;;3.78;2.13;;;;;;;23.11;34.76;100583.91;10395333;28;20366;-74
2022/05/25 13:30:39;;;;;;;4.00;1.80;;;;;;;22.68;35.22;100590.72;10391648;28;20065;-74
2022/05/25 13:35:47;;;;;;;3.28;2.03;;;;;;;22.20;35.21;100564.03;10408999;28;20061;-73
2022/05/25 13:41:01;;;;;;;7.75;2.20;;;;;;;22.27;35.50;100583.66;10379714;28;20048;-74
2022/05/25 13:46:02;;;;;;;4.75;1.67;;;;;;;22.11;35.03;100485.09;10335523;28;20046;-80
2022/05/25 13:51:03;;;;;;;9.48;1.90;;;;;;;22.46;34.85;100482.25;10335762;28;20046;-74
2022/05/25 13:56:12;;;;;;;4.47;2.30;;;;;;;22.76;34.93;100556.97;10335775;28;20050;-75
2022/05/25 14:01:22;;;;;;;4.15;1.75;;;;;;;22.49;34.76;100552.16;10334593;28;20064;-74
2022/05/25 14:06:23;;;;;;;8.40;2.20;;;;;;;22.68;35.61;100588.00;10338676;28;20039;-74
2022/05/25 14:11:55;;;;;;;7.38;1.92;;;;;;;22.45;34.98;100567.25;10358759;28;20096;-75
2022/05/25 14:17:03;;;;;;;5.80;1.80;;;;;;;22.82;36.16;100596.63;10359754;28;20133;-75
2022/05/25 14:22:09;;;;;;;4.10;1.70;;;;;;;22.12;35.23;100570.63;10374504;28;20069;-74
2022/05/25 14:27:36;;;;;;;3.50;1.67;;;;;;;21.84;35.63;100609.22;10374310;28;20124;-74
2022/05/25 14:32:36;;;;;;;3.65;1.65;;;;;;;21.38;36.59;100611.66;10374044;28;20045;-74
2022/05/25 14:37:39;;;;;;;4.53;1.58;;;;;;;20.34;38.10;100488.75;10372964;28;20061;-73
2022/05/25 14:42:52;;;;;;;2.97;1.70;;;;;;;21.02;38.91;100626.09;10373777;28;20041;-74
2022/05/25 14:48:13;;;;;;;4.18;1.88;;;;;;;20.88;39.08;100627.34;10340618;28;20045;-75
2022/05/25 14:53:19;;;;;;;3.88;1.83;;;;;;;19.91;39.72;100514.00;10332487;28;20452;-74
2022/05/25 14:58:22;;;;;;;5.18;2.50;;;;;;;19.80;40.05;100516.41;10333524;28;20046;-74
2022/05/25 15:03:27;;;;;;;6.35;3.40;;;;;;;19.84;41.22;100535.66;10333162;28;20042;-74
2022/05/25 15:08:32;;;;;;;7.07;2.90;;;;;;;20.40;41.46;100645.19;10332743;28;20042;-75
2022/05/25 15:19:00;;;;;;;5.15;2.08;;;;;;;20.33;41.85;100668.69;10332464;28;20088;-75
2022/05/25 15:24:04;;;;;;;4.80;1.80;;;;;;;20.46;41.60;100686.59;10334558;28;20088;-75
2022/05/25 15:29:13;;;;;;;4.72;1.88;;;;;;;20.09;42.02;100615.63;10353907;28;20123;-74
2022/05/25 15:34:14;;;;;;;4.35;2.30;;;;;;;20.29;42.47;100692.59;10330053;28;20149;-75
2022/05/25 15:39:16;;;;;;;3.30;1.90;;;;;;;20.08;43.36;100689.50;10331782;28;20133;-74
2022/05/25 15:44:16;;;;;;;2.90;1.90;;;;;;;19.74;44.04;100673.63;10358602;28;20157;-74
2022/05/25 15:49:19;;;;;;;5.63;2.08;;;;;;;19.86;43.39;100697.97;10331370;28;20042;-76
2022/05/25 15:54:25;;;;;;;3.88;1.58;;;;;;;19.28;43.28;100622.75;10331090;28;20506;-75
2022/05/25 15:59:26;;;;;;;7.10;2.33;;;;;;;19.66;44.03;100708.13;10331049;28;20502;-73
2022/05/25 16:04:33;;;;;;;4.05;1.88;;;;;;;18.46;44.27;100555.31;10331497;28;20046;-74
2022/05/25 16:09:34;;;;;;;11.95;2.22;;;;;;;19.16;45.08;100716.88;10330663;28;20077;-68
2022/05/25 16:14:35;;;;;;;9.63;2.55;;;;;;;18.89;45.99;100721.56;10329901;28;20047;-72
2022/05/25 16:19:36;;;;;;;6.80;2.10;;;;;;;18.63;46.89;100731.34;10330274;28;20502;-71
2022/05/25 16:24:37;;;;;;;9.57;2.90;;;;;;;18.30;47.06;100714.47;10330627;28;20042;-71
2022/05/25 16:29:38;;;;;;;7.93;2.75;;;;;;;17.97;48.65;100716.16;10331654;28;20050;-70
2022/05/25 16:34:42;;;;;;;8.02;2.42;;;;;;;17.17;49.75;100650.78;10333795;28;20068;-71
2022/05/25 16:39:43;;;;;;;4.78;1.95;;;;;;;17.34;50.06;100713.78;10364284;28;20041;-73
2022/05/25 16:44:45;;;;;;;7.50;2.35;;;;;;;17.28;51.38;100737.94;10364008;28;20444;-73
2022/05/25 16:49:46;;;;;;;8.15;2.13;;;;;;;16.84;52.25;100723.97;10392466;28;20041;-72
2022/05/25 16:54:47;;;;;;;12.25;2.75;;;;;;;16.88;53.47;100757.44;10405920;28;20139;-72
2022/05/25 16:59:47;;;;;;;13.77;3.00;;;;;;;16.68;53.58;100767.19;10415543;28;20049;-72
2022/05/25 17:04:48;;;;;;;13.68;3.05;;;;;;;15.70;54.94;100651.06;10419772;28;20099;-73
2022/05/25 17:09:49;;;;;;;7.38;2.50;;;;;;;16.18;55.47;100767.28;10398400;28;20053;-72
2022/05/25 17:14:50;;;;;;;6.57;2.90;;;;;;;15.22;56.70;100646.28;10361448;28;20056;-72
2022/05/25 17:25:11;;;;;;;5.35;2.30;;;;;;;15.66;58.21;100786.34;10336758;28;20048;-72
2022/05/25 17:30:12;;;;;;;7.35;2.70;;;;;;;14.11;58.86;100557.38;10337196;28;20192;-72
2022/05/25 17:35:13;;;;;;;7.95;2.05;;;;;;;15.40;59.52;100801.09;10338180;28;20172;-72
2022/05/25 17:45:49;;;;;;;7.68;2.85;;;;;;;14.90;60.55;100802.75;10358769;28;20050;-72
2022/05/25 17:50:50;;;;;;;3.70;2.08;;;;;;;13.19;60.53;100556.78;10335993;28;20061;-72
2022/05/25 17:55:51;;;;;;;5.30;2.22;;;;;;;14.39;61.66;100805.25;10335437;28;20038;-72
2022/05/25 18:00:52;;;;;;;6.30;2.92;;;;;;;14.29;62.74;100834.06;10335156;28;20086;-72
2022/05/25 18:05:53;;;;;;;5.95;2.33;;;;;;;13.77;64.57;100794.75;10333606;28;20045;-72
2022/05/25 18:10:54;;;;;;;5.65;2.75;;;;;;;13.80;64.79;100821.09;10333731;28;20509;-72
2022/05/25 18:15:55;;;;;;;7.72;4.57;;;;;;;13.00;65.71;100718.13;10334632;28;20046;-72
2022/05/25 18:20:56;;;;;;;16.13;6.15;;;;;;;12.74;66.65;100708.59;10334575;28;20047;-72
2022/05/25 18:25:56;;;;;;;10.07;6.28;;;;;;;12.54;67.20;100699.34;10334348;28;20498;-72
2022/05/25 18:30:57;;;;;;;13.77;5.40;;;;;;;13.25;67.88;100833.56;10334748;28;20046;-72
2022/05/25 18:35:58;;;;;;;8.23;3.88;;;;;;;12.83;68.37;100781.34;10334398;28;20177;-72
2022/05/25 18:40:59;;;;;;;7.50;3.80;;;;;;;12.08;69.52;100691.13;10333858;28;20558;-72
2022/05/25 18:46:00;;;;;;;8.23;3.58;;;;;;;11.77;70.38;100646.56;10331724;28;20038;-73
2022/05/25 18:51:01;;;;;;;6.20;3.63;;;;;;;12.42;71.00;100784.13;10371865;28;20033;-70
2022/05/25 18:56:02;;;;;;;9.70;4.05;;;;;;;11.96;71.32;100708.44;10336271;28;20086;-72
2022/05/25 19:01:04;;;;;;;8.73;4.25;;;;;;;12.17;71.67;100758.53;10332875;28;20121;-72
2022/05/25 19:06:05;;;;;;;6.72;3.65;;;;;;;12.44;72.11;100807.94;10332196;28;20112;-72
2022/05/25 19:11:06;;;;;;;10.38;4.28;;;;;;;12.40;72.60;100812.78;10332411;28;20052;-71
2022/05/25 19:16:09;;;;;;;8.35;4.78;;;;;;;12.25;73.60;100801.13;10331965;28;20052;-72
2022/05/25 19:21:15;;;;;;;8.15;4.38;;;;;;;11.66;76.08;100716.06;10331847;28;20137;-72
2022/05/25 19:26:19;;;;;;;8.85;4.97;;;;;;;12.39;76.64;100847.59;10335131;28;20045;-71
2022/05/25 19:31:20;;;;;;;8.02;4.38;;;;;;;11.96;75.35;100772.34;10387574;28;20045;-71
2022/05/25 19:36:27;;;;;;;11.20;4.40;;;;;;;11.50;76.88;100726.72;10368169;28;20058;-71
2022/05/25 19:41:32;;;;;;;6.63;3.67;;;;;;;11.62;76.91;100765.31;10354652;28;20054;-71
2022/05/25 19:46:33;;;;;;;6.43;3.67;;;;;;;11.95;76.81;100853.22;10331478;28;20042;-71
2022/05/25 19:51:36;;;;;;;6.88;4.40;;;;;;;11.87;77.28;100828.25;10331143;28;20050;-71
2022/05/25 19:56:37;;;;;;;7.28;3.30;;;;;;;11.82;77.47;100830.56;10331648;28;20053;-71
2022/05/25 20:01:38;;;;;;;9.88;3.65;;;;;;;11.53;77.26;100809.69;10330818;28;20519;-71
2022/05/25 20:06:39;;;;;;;5.95;3.42;;;;;;;11.62;77.51;100818.53;10330614;28;20184;-71
2022/05/25 20:11:39;;;;;;;7.97;5.13;;;;;;;11.31;77.63;100781.88;10331251;28;20038;-71
2022/05/25 20:16:41;;;;;;;13.68;4.75;;;;;;;11.48;77.52;100811.19;10330443;28;20038;-71
2022/05/25 20:21:41;;;;;;;8.02;3.78;;;;;;;11.59;77.53;100818.88;10330667;28;20531;-71
2022/05/25 20:26:42;;;;;;;11.10;4.15;;;;;;;11.42;77.92;100800.19;10330458;28;20136;-73
2022/05/25 20:31:43;;;;;;;6.72;3.90;;;;;;;11.54;78.01;100813.19;10331200;28;20449;-71
2022/05/25 20:36:49;;;;;;;6.82;4.28;;;;;;;11.20;80.24;100783.00;10338527;28;20058;-71
2022/05/25 20:41:50;;;;;;;9.90;3.90;;;;;;;11.10;78.96;100798.28;10339107;28;20526;-71
2022/05/25 20:46:51;;;;;;;8.55;5.07;;;;;;;10.36;79.28;100685.50;10338428;28;20038;-71
2022/05/25 20:51:52;;;;;;;10.25;4.43;;;;;;;11.27;78.84;100817.75;10337588;28;20536;-71
2022/05/25 20:56:53;;;;;;;8.10;4.40;;;;;;;10.39;78.75;100695.81;10337720;28;20069;-71
2022/05/25 21:01:54;;;;;;;12.38;4.68;;;;;;;11.07;79.29;100816.34;10337214;28;20081;-71
2022/05/25 21:06:56;;;;;;;5.40;4.03;;;;;;;11.01;79.62;100823.16;10369405;28;20042;-71
2022/05/25 21:11:56;;;;;;;7.78;3.95;;;;;;;10.69;79.08;100776.81;10336658;28;20042;-71
2022/05/25 21:16:57;;;;;;;7.82;4.25;;;;;;;10.96;79.04;100826.28;10337004;28;20050;-71
2022/05/25 21:21:58;;;;;;;11.95;4.78;;;;;;;10.88;79.37;100820.09;10336356;28;20042;-71
2022/05/25 21:26:59;;;;;;;6.22;4.20;;;;;;;10.60;79.36;100798.19;10336913;28;20045;-71
2022/05/25 21:37:19;;;;;;;8.00;4.55;;;;;;;10.63;80.41;100808.50;10335877;28;20058;-71
2022/05/25 21:42:20;;;;;;;6.80;4.50;;;;;;;9.12;80.62;100576.84;10336015;28;20038;-71
2022/05/25 21:52:43;;;;;;;11.98;4.10;;;;;;;10.49;81.81;100812.53;10335805;28;20122;-71
2022/05/25 21:57:44;;;;;;;11.63;4.20;;;;;;;10.21;81.27;100790.59;10335585;28;20069;-71
2022/05/25 22:02:45;;;;;;;9.77;4.18;;;;;;;10.31;81.17;100820.56;10335285;28;20101;-71
2022/05/25 22:07:47;;;;;;;5.57;3.70;;;;;;;10.07;81.60;100831.78;10335204;28;20042;-72
2022/05/25 22:12:48;;;;;;;10.55;4.22;;;;;;;9.82;81.92;100809.50;10335884;28;20034;-71
2022/05/25 22:17:49;;;;;;;6.68;4.60;;;;;;;9.38;82.49;100722.72;10334535;28;20498;-71
2022/05/25 22:22:49;;;;;;;5.80;4.05;;;;;;;9.79;83.17;100801.84;10333833;28;20042;-71
2022/05/25 22:27:50;;;;;;;7.95;4.28;;;;;;;9.77;82.84;100798.50;10334716;28;20039;-72
2022/05/25 22:32:51;;;;;;;6.57;4.25;;;;;;;9.88;82.99;100830.13;10334892;28;20487;-71
2022/05/25 22:37:52;;;;;;;10.05;4.20;;;;;;;9.80;82.83;100825.56;10334309;28;20514;-71
2022/05/25 22:42:53;;;;;;;10.48;4.82;;;;;;;9.71;83.16;100822.97;10334392;28;20050;-71
2022/05/25 22:47:54;;;;;;;7.03;4.68;;;;;;;7.92;83.10;100547.06;10333867;28;20410;-71
2022/05/25 22:52:55;;;;;;;7.60;5.00;;;;;;;9.63;83.79;100838.81;10333754;28;20038;-71
2022/05/25 22:57:56;;;;;;;9.02;4.93;;;;;;;8.86;83.79;100700.47;10331887;28;20047;-71
2022/05/25 23:02:56;;;;;;;7.57;4.80;;;;;;;9.51;84.04;100825.78;10332976;28;20034;-71
2022/05/25 23:07:57;;;;;;;7.60;4.90;;;;;;;8.75;84.35;100700.66;10332539;28;20080;-71
2022/05/25 23:12:58;;;;;;;8.05;5.05;;;;;;;9.18;85.09;100766.22;10333047;28;20034;-71
2022/05/25 23:17:59;;;;;;;8.52;5.45;;;;;;;9.60;85.02;100840.81;10332546;28;20046;-71
2022/05/25 23:22:59;;;;;;;7.05;4.85;;;;;;;9.35;85.09;100799.91;10364885;28;20044;-71
2022/05/25 23:33:20;;;;;;;9.85;5.00;;;;;;;8.55;84.31;100706.03;10372756;28;20484;-71
2022/05/25 23:38:21;;;;;;;6.28;4.63;;;;;;;8.22;84.79;100676.44;10372921;28;20152;-71
2022/05/25 23:48:42;;;;;;;10.57;4.88;;;;;;;7.53;85.67;100584.22;10372473;28;20519;-71
2022/05/25 23:53:44;;;;;;;7.22;4.60;;;;;;;8.91;86.46;100814.75;10372142;28;20037;-71
2022/05/25 23:58:45;;;;;;;6.57;4.80;;;;;;;8.22;85.86;100691.50;10370536;28;20052;-71
